createdAt,value
2018-02-22T00:00:26.997Z,25.10
2018-02-22T00:01:00.927Z,21.83
2018-02-22T00:01:35.011Z,23.48
2018-02-22T00:02:13.706Z,25.65
2018-02-22T00:02:50.465Z,25.30
2018-02-22T00:03:24.426Z,23.25
2018-02-22T00:03:58.336Z,22.95
2018-02-22T00:04:32.258Z,23.05
2018-02-22T00:05:06.229Z,26.58
2018-02-22T00:05:40.206Z,25.55
2018-02-22T00:06:14.136Z,21.77
2018-02-22T00:06:48.070Z,25.50
2018-02-22T00:07:22.161Z,23.48
2018-02-22T00:07:56.076Z,23.05
2018-02-22T00:08:30.151Z,22.45
2018-02-22T00:09:04.066Z,22.02
2018-02-22T00:09:37.999Z,24.65
2018-02-22T00:10:11.903Z,24.23
2018-02-22T00:10:46.151Z,21.80
2018-02-22T00:11:20.223Z,19.92
2018-02-22T00:11:54.299Z,22.37
2018-02-22T00:12:28.293Z,22.13
2018-02-22T00:13:02.354Z,22.05
2018-02-22T00:13:36.297Z,22.75
2018-02-22T00:14:10.208Z,19.87
2018-02-22T00:14:44.188Z,21.87
2018-02-22T00:15:18.108Z,22.75
2018-02-22T00:15:52.023Z,24.75
2018-02-22T00:16:25.974Z,23.25
2018-02-22T00:16:59.965Z,21.60
2018-02-22T00:17:33.894Z,22.35
2018-02-22T00:18:07.905Z,27.87
2018-02-22T00:18:41.850Z,20.02
2018-02-22T00:19:15.767Z,19.35
2018-02-22T00:19:49.969Z,20.37
2018-02-22T00:20:23.967Z,20.83
2018-02-22T00:20:58.177Z,21.10
2018-02-22T00:21:32.213Z,22.67
2018-02-22T00:22:06.144Z,23.55
2018-02-22T00:22:40.065Z,22.60
2018-02-22T00:23:14.025Z,23.12
2018-02-22T00:23:47.937Z,23.15
2018-02-22T00:24:21.965Z,23.87
2018-02-22T00:24:55.891Z,24.20
2018-02-22T00:25:29.966Z,21.45
2018-02-22T00:26:03.891Z,24.90
2018-02-22T00:26:37.825Z,21.90
2018-02-22T00:27:11.925Z,23.33
2018-02-22T00:27:45.842Z,24.73
2018-02-22T00:28:19.833Z,25.67
2018-02-22T00:28:53.813Z,21.75
2018-02-22T00:29:27.756Z,23.30
2018-02-22T00:30:01.706Z,24.02
2018-02-22T00:30:35.643Z,22.65
2018-02-22T00:31:09.759Z,21.10
2018-02-22T00:31:43.677Z,22.65
2018-02-22T00:32:17.616Z,23.65
2018-02-22T00:32:51.558Z,24.75
2018-02-22T00:33:25.672Z,18.67
2018-02-22T00:33:59.610Z,20.83
2018-02-22T00:34:33.588Z,24.08
2018-02-22T00:35:07.688Z,22.52
2018-02-22T00:35:41.615Z,25.17
2018-02-22T00:36:15.690Z,22.20
2018-02-22T00:36:50.267Z,20.95
2018-02-22T00:37:24.216Z,21.60
2018-02-22T00:37:58.290Z,25.37
2018-02-22T00:38:32.288Z,23.00
2018-02-22T00:39:06.209Z,29.35
2018-02-22T00:39:40.129Z,24.42
2018-02-22T00:40:14.157Z,21.83
2018-02-22T00:40:48.082Z,21.42
2018-02-22T00:41:22.042Z,20.62
2018-02-22T00:41:55.986Z,21.33
2018-02-22T00:42:30.085Z,25.92
2018-02-22T00:43:04.035Z,21.35
2018-02-22T00:43:38.082Z,22.10
2018-02-22T00:44:12.102Z,23.27
2018-02-22T00:44:46.084Z,23.15
2018-02-22T00:45:20.017Z,22.23
2018-02-22T00:45:53.941Z,23.90
2018-02-22T00:46:27.886Z,25.42
2018-02-22T00:47:01.844Z,23.67
2018-02-22T00:47:35.843Z,23.30
2018-02-22T00:48:09.776Z,24.15
2018-02-22T00:48:43.740Z,25.80
2018-02-22T00:49:17.769Z,24.27
2018-02-22T00:49:51.835Z,21.45
2018-02-22T00:50:25.865Z,22.90
2018-02-22T00:51:00.024Z,23.02
2018-02-22T00:51:34.004Z,18.48
2018-02-22T00:52:07.987Z,21.70
2018-02-22T00:52:41.900Z,25.52
2018-02-22T00:53:15.931Z,24.42
2018-02-22T00:53:50.096Z,25.85
2018-02-22T00:54:24.069Z,23.05
2018-02-22T00:54:58.020Z,22.55
2018-02-22T00:55:32.102Z,27.87
2018-02-22T00:56:06.212Z,24.42
2018-02-22T00:56:40.118Z,30.48
2018-02-22T00:57:14.060Z,22.58
2018-02-22T00:57:47.994Z,23.83
2018-02-22T00:58:21.909Z,24.10
2018-02-22T00:58:56.009Z,26.00
2018-02-22T00:59:29.934Z,24.12
2018-02-22T01:00:03.882Z,26.15
2018-02-22T01:00:37.881Z,27.35
2018-02-22T01:01:11.819Z,28.83
2018-02-22T01:01:46.004Z,21.45
2018-02-22T01:02:19.953Z,25.42
2018-02-22T01:02:53.872Z,22.15
2018-02-22T01:03:27.767Z,24.45
2018-02-22T01:04:01.692Z,23.48
2018-02-22T01:04:35.785Z,22.83
2018-02-22T01:05:09.688Z,26.45
2018-02-22T01:05:43.677Z,22.50
2018-02-22T01:06:17.674Z,23.17
2018-02-22T01:06:51.641Z,24.85
2018-02-22T01:07:25.568Z,24.27
2018-02-22T01:07:59.515Z,22.42
2018-02-22T01:08:33.560Z,22.77
2018-02-22T01:09:07.561Z,24.17
2018-02-22T01:09:41.526Z,23.92
2018-02-22T01:10:15.440Z,21.65
2018-02-22T01:10:49.422Z,25.52
2018-02-22T01:11:23.343Z,22.35
2018-02-22T01:11:57.286Z,23.62
2018-02-22T01:12:31.864Z,22.08
2018-02-22T01:13:05.948Z,25.48
2018-02-22T01:13:39.890Z,25.15
2018-02-22T01:14:13.824Z,25.65
2018-02-22T01:14:47.755Z,26.98
2018-02-22T01:15:21.720Z,28.92
2018-02-22T01:15:55.709Z,24.98
2018-02-22T01:16:29.614Z,21.95
2018-02-22T01:17:03.598Z,25.52
2018-02-22T01:17:37.522Z,27.50
2018-02-22T01:18:11.457Z,25.90
2018-02-22T01:18:45.375Z,20.55
2018-02-22T01:19:19.354Z,23.12
2018-02-22T01:19:53.290Z,27.02
2018-02-22T01:20:27.237Z,23.00
2018-02-22T01:21:01.333Z,25.27
2018-02-22T01:21:35.280Z,25.02
2018-02-22T01:22:09.205Z,21.77
2018-02-22T01:22:43.121Z,27.60
2018-02-22T01:23:17.052Z,24.75
2018-02-22T01:23:50.974Z,25.75
2018-02-22T01:24:24.897Z,22.23
2018-02-22T01:24:58.800Z,25.85
2018-02-22T01:25:32.722Z,28.73
2018-02-22T01:26:07.685Z,25.00
2018-02-22T01:26:41.679Z,24.87
2018-02-22T01:27:15.804Z,29.23
2018-02-22T01:27:49.731Z,29.10
2018-02-22T01:28:23.652Z,27.08
2018-02-22T01:28:57.563Z,25.33
2018-02-22T01:29:31.484Z,26.33
2018-02-22T01:30:05.601Z,25.65
2018-02-22T01:30:39.660Z,27.13
2018-02-22T01:31:13.589Z,22.42
2018-02-22T01:31:47.523Z,23.40
2018-02-22T01:32:21.507Z,25.08
2018-02-22T01:32:55.412Z,24.48
2018-02-22T01:33:30.423Z,25.77
2018-02-22T01:34:04.362Z,23.77
2018-02-22T01:34:38.313Z,23.98
2018-02-22T01:35:12.392Z,29.05
2018-02-22T01:35:46.589Z,24.48
2018-02-22T01:36:20.694Z,26.33
2018-02-22T01:36:55.227Z,23.77
2018-02-22T01:37:29.236Z,21.67
2018-02-22T01:38:03.451Z,27.20
2018-02-22T01:38:37.680Z,27.60
2018-02-22T01:39:11.655Z,26.98
2018-02-22T01:39:45.638Z,30.58
2018-02-22T01:40:19.543Z,30.10
2018-02-22T01:40:53.580Z,27.92
2018-02-22T01:41:27.509Z,26.27
2018-02-22T01:42:01.495Z,25.30
2018-02-22T01:42:35.573Z,23.92
2018-02-22T01:43:09.508Z,31.95
2018-02-22T01:43:43.529Z,28.92
2018-02-22T01:44:17.444Z,28.17
2018-02-22T01:44:51.369Z,27.30
2018-02-22T01:45:25.304Z,29.55
2018-02-22T01:45:59.220Z,28.80
2018-02-22T01:46:33.183Z,24.15
2018-02-22T01:47:07.147Z,26.33
2018-02-22T01:47:41.250Z,25.83
2018-02-22T01:48:15.245Z,27.98
2018-02-22T01:48:49.170Z,28.52
2018-02-22T01:49:23.103Z,29.37
2018-02-22T01:49:57.034Z,28.15
2018-02-22T01:50:30.972Z,27.70
2018-02-22T01:51:04.968Z,27.55
2018-02-22T01:51:39.066Z,27.77
2018-02-22T01:52:12.987Z,29.15
2018-02-22T01:52:46.901Z,27.73
2018-02-22T01:53:20.811Z,27.50
2018-02-22T01:53:54.809Z,30.35
2018-02-22T01:54:28.715Z,29.05
2018-02-22T01:55:02.621Z,26.15
2018-02-22T01:55:36.532Z,31.52
2018-02-22T01:56:10.458Z,31.50
2018-02-22T01:56:44.385Z,26.40
2018-02-22T01:57:18.304Z,26.23
2018-02-22T01:57:52.265Z,28.38
2018-02-22T01:58:26.215Z,27.60
2018-02-22T01:59:00.150Z,33.25
2018-02-22T01:59:34.410Z,29.52
2018-02-22T02:00:08.333Z,32.03
2018-02-22T02:00:42.252Z,30.67
2018-02-22T02:01:16.481Z,29.52
2018-02-22T02:01:50.415Z,29.77
2018-02-22T02:02:24.530Z,30.25
2018-02-22T02:02:58.616Z,26.60
2018-02-22T02:03:32.714Z,26.92
2018-02-22T02:04:06.752Z,29.40
2018-02-22T02:04:40.666Z,30.20
2018-02-22T02:05:14.716Z,26.23
2018-02-22T02:05:48.658Z,30.67
2018-02-22T02:06:22.922Z,30.00
2018-02-22T02:06:57.008Z,32.30
2018-02-22T02:07:30.930Z,31.05
2018-02-22T02:08:04.853Z,28.98
2018-02-22T02:08:38.777Z,30.30
2018-02-22T02:09:12.685Z,28.65
2018-02-22T02:09:46.715Z,28.92
2018-02-22T02:10:20.649Z,25.73
2018-02-22T02:10:54.886Z,32.50
2018-02-22T02:11:28.817Z,27.40
2018-02-22T02:12:02.752Z,28.75
2018-02-22T02:12:36.784Z,30.08
2018-02-22T02:13:10.699Z,31.48
2018-02-22T02:13:44.629Z,31.77
2018-02-22T02:14:18.727Z,30.25
2018-02-22T02:14:52.660Z,27.85
2018-02-22T02:15:26.624Z,30.00
2018-02-22T02:16:00.546Z,28.23
2018-02-22T02:16:34.531Z,31.17
2018-02-22T02:17:08.669Z,26.58
2018-02-22T02:17:42.581Z,24.80
2018-02-22T02:18:16.510Z,29.90
2018-02-22T02:18:50.452Z,29.02
2018-02-22T02:19:24.365Z,28.17
2018-02-22T02:19:58.384Z,35.50
2018-02-22T02:20:32.645Z,26.95
2018-02-22T02:21:06.552Z,32.40
2018-02-22T02:21:40.842Z,27.77
2018-02-22T02:22:14.783Z,25.15
2018-02-22T02:22:48.697Z,25.08
2018-02-22T02:23:22.605Z,37.28
2018-02-22T02:23:56.540Z,26.08
2018-02-22T02:24:30.455Z,29.50
2018-02-22T02:25:04.673Z,29.20
2018-02-22T02:25:38.585Z,28.25
2018-02-22T02:26:12.518Z,32.97
2018-02-22T02:26:46.424Z,35.40
2018-02-22T02:27:20.395Z,30.12
2018-02-22T02:28:00.090Z,32.15
2018-02-22T02:28:34.038Z,29.23
2018-02-22T02:29:07.972Z,30.48
2018-02-22T02:29:42.081Z,29.55
2018-02-22T02:30:16.026Z,29.00
2018-02-22T02:30:49.965Z,30.73
2018-02-22T02:31:23.893Z,28.38
2018-02-22T02:31:57.854Z,31.10
2018-02-22T02:32:31.784Z,28.12
2018-02-22T02:33:05.884Z,28.48
2018-02-22T02:33:39.969Z,31.98
2018-02-22T02:34:13.888Z,35.13
2018-02-22T02:34:47.850Z,31.05
2018-02-22T02:35:21.800Z,33.63
2018-02-22T02:35:55.745Z,35.17
2018-02-22T02:36:29.666Z,32.22
2018-02-22T02:37:03.585Z,32.42
2018-02-22T02:37:37.518Z,30.08
2018-02-22T02:38:11.564Z,26.87
2018-02-22T02:38:45.495Z,23.60
2018-02-22T02:39:19.480Z,28.83
2018-02-22T02:39:53.541Z,28.67
2018-02-22T02:40:27.621Z,33.95
2018-02-22T02:41:01.550Z,28.25
2018-02-22T02:41:35.676Z,27.00
2018-02-22T02:42:09.629Z,27.02
2018-02-22T02:42:43.727Z,28.65
2018-02-22T02:43:17.717Z,28.80
2018-02-22T02:43:51.627Z,30.27
2018-02-22T02:44:25.747Z,35.15
2018-02-22T02:44:59.765Z,29.17
2018-02-22T02:45:33.708Z,30.35
2018-02-22T02:46:07.763Z,27.15
2018-02-22T02:46:41.809Z,27.65
2018-02-22T02:47:15.826Z,29.75
2018-02-22T02:47:49.755Z,31.98
2018-02-22T02:48:23.684Z,33.70
2018-02-22T02:48:57.588Z,28.90
2018-02-22T02:49:31.568Z,25.02
2018-02-22T02:50:05.509Z,31.48
2018-02-22T02:50:39.588Z,28.40
2018-02-22T02:51:13.531Z,31.85
2018-02-22T02:51:47.485Z,26.55
2018-02-22T02:52:21.424Z,29.87
2018-02-22T02:52:55.350Z,30.65
2018-02-22T02:53:29.296Z,30.55
2018-02-22T02:54:03.293Z,32.42
2018-02-22T02:54:37.426Z,33.08
2018-02-22T02:55:11.361Z,29.17
2018-02-22T02:55:45.282Z,29.37
2018-02-22T02:56:19.196Z,30.83
2018-02-22T02:56:53.136Z,29.70
2018-02-22T02:57:27.031Z,31.12
2018-02-22T02:58:01.071Z,27.58
2018-02-22T02:58:35.193Z,25.48
2018-02-22T02:59:09.143Z,28.55
2018-02-22T02:59:43.098Z,32.33
2018-02-22T03:00:17.046Z,33.45
2018-02-22T03:00:50.970Z,29.30
2018-02-22T03:01:24.884Z,31.62
2018-02-22T03:01:58.885Z,31.08
2018-02-22T03:02:33.031Z,35.35
2018-02-22T03:03:07.072Z,27.75
2018-02-22T03:03:41.052Z,31.15
2018-02-22T03:04:15.043Z,31.67
2018-02-22T03:04:49.329Z,31.55
2018-02-22T03:05:23.480Z,29.05
2018-02-22T03:05:57.435Z,35.95
2018-02-22T03:06:31.374Z,37.33
2018-02-22T03:07:05.498Z,31.87
2018-02-22T03:07:39.549Z,31.33
2018-02-22T03:08:13.476Z,34.72
2018-02-22T03:08:47.426Z,27.20
2018-02-22T03:09:21.404Z,27.87
2018-02-22T03:09:55.353Z,29.98
2018-02-22T03:10:29.296Z,30.98
2018-02-22T03:11:03.320Z,32.85
2018-02-22T03:11:37.231Z,29.35
2018-02-22T03:12:11.169Z,30.17
2018-02-22T03:12:45.093Z,29.45
2018-02-22T03:13:19.052Z,31.17
2018-02-22T03:13:52.973Z,30.37
2018-02-22T03:14:26.896Z,29.33
2018-02-22T03:15:00.973Z,36.67
2018-02-22T03:15:34.934Z,32.03
2018-02-22T03:16:08.963Z,29.05
2018-02-22T03:16:42.882Z,29.83
2018-02-22T03:17:16.833Z,38.75
2018-02-22T03:17:50.744Z,31.60
2018-02-22T03:18:24.791Z,30.40
2018-02-22T03:18:58.774Z,30.48
2018-02-22T03:19:32.870Z,27.55
2018-02-22T03:20:07.024Z,29.63
2018-02-22T03:20:40.965Z,29.12
2018-02-22T03:21:14.869Z,23.10
2018-02-22T03:21:48.797Z,30.02
2018-02-22T03:22:22.745Z,30.92
2018-02-22T03:22:56.858Z,31.50
2018-02-22T03:23:30.848Z,31.73
2018-02-22T03:24:04.791Z,34.85
2018-02-22T03:24:38.752Z,32.80
2018-02-22T03:25:12.661Z,28.92
2018-02-22T03:25:46.673Z,30.95
2018-02-22T03:26:20.605Z,33.83
2018-02-22T03:26:54.548Z,32.10
2018-02-22T03:27:28.775Z,35.92
2018-02-22T03:28:02.717Z,27.58
2018-02-22T03:28:36.648Z,28.15
2018-02-22T03:29:10.595Z,35.70
2018-02-22T03:29:44.514Z,29.58
2018-02-22T03:30:18.968Z,32.10
2018-02-22T03:30:52.914Z,28.35
2018-02-22T03:31:27.180Z,32.47
2018-02-22T03:32:01.111Z,33.75
2018-02-22T03:32:35.032Z,28.83
2018-02-22T03:33:09.135Z,30.70
2018-02-22T03:33:43.204Z,34.47
2018-02-22T03:34:17.132Z,30.45
2018-02-22T03:34:51.155Z,28.70
2018-02-22T03:35:25.085Z,33.08
2018-02-22T03:35:58.995Z,33.20
2018-02-22T03:36:32.955Z,32.53
2018-02-22T03:37:06.886Z,35.50
2018-02-22T03:37:40.866Z,27.67
2018-02-22T03:38:14.902Z,30.33
2018-02-22T03:38:49.105Z,30.90
2018-02-22T03:39:23.032Z,35.03
2018-02-22T03:39:57.004Z,29.95
2018-02-22T03:40:30.981Z,32.63
2018-02-22T03:41:04.971Z,34.38
2018-02-22T03:41:39.104Z,29.17
2018-02-22T03:42:13.055Z,28.52
2018-02-22T03:42:46.976Z,30.05
2018-02-22T03:43:20.921Z,32.03
2018-02-22T03:43:54.919Z,30.33
2018-02-22T03:44:28.852Z,32.30
2018-02-22T03:45:02.785Z,28.15
2018-02-22T03:45:36.709Z,31.92
2018-02-22T03:46:10.683Z,32.47
2018-02-22T03:46:44.632Z,32.45
2018-02-22T03:47:18.550Z,27.70
2018-02-22T03:47:52.505Z,30.17
2018-02-22T03:48:26.439Z,28.08
2018-02-22T03:49:00.421Z,30.92
2018-02-22T03:49:34.349Z,28.35
2018-02-22T03:50:08.478Z,30.90
2018-02-22T03:50:42.745Z,34.97
2018-02-22T03:51:16.650Z,28.27
2018-02-22T03:51:50.777Z,30.40
2018-02-22T03:52:24.920Z,31.55
2018-02-22T03:52:58.879Z,30.37
2018-02-22T03:53:32.916Z,29.65
2018-02-22T03:54:06.839Z,28.50
2018-02-22T03:54:40.820Z,34.67
2018-02-22T03:55:14.729Z,31.20
2018-02-22T03:55:48.646Z,34.05
2018-02-22T03:56:22.565Z,27.60
2018-02-22T03:56:56.504Z,32.70
2018-02-22T03:57:30.440Z,32.67
2018-02-22T03:58:04.360Z,33.97
2018-02-22T03:58:38.281Z,29.87
2018-02-22T03:59:12.389Z,32.17
2018-02-22T03:59:46.441Z,30.92
2018-02-22T04:00:20.387Z,36.55
2018-02-22T04:00:54.337Z,31.58
2018-02-22T04:01:28.256Z,32.67
2018-02-22T04:02:02.344Z,32.50
2018-02-22T04:02:36.263Z,31.87
2018-02-22T04:03:10.204Z,29.25
2018-02-22T04:03:44.451Z,29.87
2018-02-22T04:04:18.548Z,30.12
2018-02-22T04:04:52.568Z,33.15
2018-02-22T04:05:26.520Z,30.73
2018-02-22T04:06:00.517Z,28.87
2018-02-22T04:06:34.436Z,32.08
2018-02-22T04:07:08.349Z,32.67
2018-02-22T04:07:42.456Z,32.38
2018-02-22T04:08:16.422Z,32.45
2018-02-22T04:08:50.372Z,24.27
2018-02-22T04:09:24.396Z,33.38
2018-02-22T04:09:58.325Z,31.95
2018-02-22T04:10:32.343Z,30.05
2018-02-22T04:11:06.495Z,31.95
2018-02-22T04:11:40.575Z,30.40
2018-02-22T04:12:14.480Z,29.25
2018-02-22T04:12:48.421Z,31.95
2018-02-22T04:13:22.332Z,35.13
2018-02-22T04:13:56.291Z,33.30
2018-02-22T04:14:30.495Z,32.33
2018-02-22T04:15:04.415Z,32.22
2018-02-22T04:15:38.364Z,30.35
2018-02-22T04:16:12.431Z,31.37
2018-02-22T04:16:46.767Z,31.35
2018-02-22T04:17:20.734Z,33.35
2018-02-22T04:17:54.736Z,30.67
2018-02-22T04:18:28.809Z,30.52
2018-02-22T04:19:02.728Z,31.08
2018-02-22T04:19:36.696Z,30.00
2018-02-22T04:20:10.620Z,29.65
2018-02-22T04:20:44.541Z,29.98
2018-02-22T04:21:18.469Z,39.72
2018-02-22T04:21:52.530Z,33.30
2018-02-22T04:22:26.436Z,30.62
2018-02-22T04:23:00.454Z,29.98
2018-02-22T04:23:34.401Z,31.00
2018-02-22T04:24:08.313Z,30.75
2018-02-22T04:24:42.422Z,30.10
2018-02-22T04:25:16.339Z,32.72
2018-02-22T04:25:50.502Z,33.10
2018-02-22T04:26:24.458Z,29.30
2018-02-22T04:26:58.362Z,28.77
2018-02-22T04:27:32.323Z,33.83
2018-02-22T04:28:06.236Z,30.48
2018-02-22T04:28:40.147Z,31.37
2018-02-22T04:29:14.300Z,33.17
2018-02-22T04:29:48.247Z,34.13
2018-02-22T04:30:22.206Z,31.37
2018-02-22T04:30:56.116Z,30.75
2018-02-22T04:31:30.134Z,31.48
2018-02-22T04:32:04.089Z,32.72
2018-02-22T04:32:38.006Z,32.08
2018-02-22T04:33:11.935Z,27.20
2018-02-22T04:33:45.853Z,31.12
2018-02-22T04:34:20.039Z,30.98
2018-02-22T04:34:53.950Z,27.40
2018-02-22T04:35:28.542Z,35.55
2018-02-22T04:36:03.424Z,29.25
2018-02-22T04:36:39.711Z,31.77
2018-02-22T04:37:14.792Z,35.63
2018-02-22T04:37:48.824Z,36.17
2018-02-22T04:38:22.805Z,36.92
2018-02-22T04:38:56.713Z,32.15
2018-02-22T04:39:30.616Z,29.63
2018-02-22T04:40:04.543Z,33.63
2018-02-22T04:40:38.451Z,31.25
2018-02-22T04:41:12.366Z,29.10
2018-02-22T04:41:46.316Z,30.02
2018-02-22T04:42:20.330Z,33.00
2018-02-22T04:42:54.241Z,29.55
2018-02-22T04:43:28.158Z,32.05
2018-02-22T04:44:02.075Z,31.45
2018-02-22T04:44:36.010Z,32.50
2018-02-22T04:45:10.026Z,36.83
2018-02-22T04:45:44.109Z,34.78
2018-02-22T04:46:18.200Z,33.20
2018-02-22T04:46:52.134Z,37.95
2018-02-22T04:47:26.064Z,29.75
2018-02-22T04:48:00.237Z,30.02
2018-02-22T04:48:34.296Z,30.90
2018-02-22T04:49:08.280Z,33.78
2018-02-22T04:49:42.379Z,38.35
2018-02-22T04:50:16.638Z,35.75
2018-02-22T04:50:50.675Z,40.42
2018-02-22T04:51:24.731Z,37.90
2018-02-22T04:51:58.783Z,33.40
2018-02-22T04:52:32.779Z,35.88
2018-02-22T04:53:06.783Z,33.47
2018-02-22T04:53:40.749Z,39.63
2018-02-22T04:54:14.724Z,34.35
2018-02-22T04:54:48.677Z,35.55
2018-02-22T04:55:22.625Z,34.30
2018-02-22T04:55:56.660Z,36.28
2018-02-22T04:56:30.581Z,31.15
2018-02-22T04:57:04.621Z,34.80
2018-02-22T04:57:38.571Z,31.52
2018-02-22T04:58:12.524Z,33.78
2018-02-22T04:58:47.100Z,30.75
2018-02-22T04:59:21.013Z,31.23
2018-02-22T04:59:54.980Z,37.40
2018-02-22T05:00:29.081Z,35.83
2018-02-22T05:01:03.058Z,32.03
2018-02-22T05:01:36.988Z,36.97
2018-02-22T05:02:10.904Z,33.40
2018-02-22T05:02:44.957Z,34.58
2018-02-22T05:03:18.895Z,35.80
2018-02-22T05:03:52.894Z,34.17
2018-02-22T05:04:26.937Z,36.58
2018-02-22T05:05:00.955Z,34.65
2018-02-22T05:05:34.902Z,31.70
2018-02-22T05:06:08.836Z,38.92
2018-02-22T05:06:42.773Z,36.15
2018-02-22T05:07:16.721Z,40.72
2018-02-22T05:07:50.641Z,45.12
2018-02-22T05:08:24.717Z,36.75
2018-02-22T05:08:58.768Z,46.00
2018-02-22T05:09:32.990Z,38.67
2018-02-22T05:10:07.040Z,41.28
2018-02-22T05:10:40.996Z,34.92
2018-02-22T05:11:14.994Z,45.50
2018-02-22T05:11:49.003Z,43.87
2018-02-22T05:12:22.996Z,47.88
2018-02-22T05:12:56.973Z,52.45
2018-02-22T05:13:30.998Z,43.60
2018-02-22T05:14:05.148Z,44.92
2018-02-22T05:14:39.037Z,47.90
2018-02-22T05:15:12.896Z,45.92
2018-02-22T05:15:46.803Z,46.20
2018-02-22T05:16:20.865Z,42.50
2018-02-22T05:16:54.742Z,43.17
2018-02-22T05:17:28.638Z,43.15
2018-02-22T05:18:02.534Z,41.83
2018-02-22T05:18:36.732Z,37.92
2018-02-22T05:19:10.589Z,37.50
2018-02-22T05:19:44.534Z,34.03
2018-02-22T05:20:18.489Z,40.63
2018-02-22T05:20:52.406Z,37.08
2018-02-22T05:21:26.264Z,39.25
2018-02-22T05:22:00.300Z,39.55
2018-02-22T05:22:34.509Z,35.30
2018-02-22T05:23:08.366Z,38.30
2018-02-22T05:23:42.300Z,40.78
2018-02-22T05:24:16.292Z,39.30
2018-02-22T05:24:50.177Z,34.00
2018-02-22T05:25:24.038Z,42.15
2018-02-22T05:25:58.006Z,37.60
2018-02-22T05:26:31.968Z,41.88
2018-02-22T05:27:05.974Z,42.20
2018-02-22T05:27:39.935Z,42.92
2018-02-22T05:28:13.913Z,43.70
2018-02-22T05:28:47.776Z,41.37
2018-02-22T05:29:21.826Z,37.53
2018-02-22T05:29:55.712Z,40.97
2018-02-22T05:30:29.701Z,38.05
2018-02-22T05:31:03.720Z,43.85
2018-02-22T05:31:37.577Z,42.25
2018-02-22T05:32:11.453Z,41.97
2018-02-22T05:32:45.436Z,48.40
2018-02-22T05:33:19.305Z,40.67
2018-02-22T05:33:53.387Z,47.60
2018-02-22T05:34:27.596Z,39.63
2018-02-22T05:35:01.467Z,39.10
2018-02-22T05:35:35.433Z,38.55
2018-02-22T05:36:09.467Z,43.85
2018-02-22T05:36:43.470Z,40.15
2018-02-22T05:37:17.421Z,35.65
2018-02-22T05:37:51.427Z,43.25
2018-02-22T05:38:25.292Z,44.15
2018-02-22T05:38:59.415Z,47.30
2018-02-22T05:39:33.462Z,36.38
2018-02-22T05:40:07.337Z,43.87
2018-02-22T05:40:41.208Z,43.80
2018-02-22T05:41:15.200Z,35.75
2018-02-22T05:41:49.424Z,38.70
2018-02-22T05:42:23.448Z,39.30
2018-02-22T05:42:57.294Z,39.22
2018-02-22T05:43:31.401Z,43.45
2018-02-22T05:44:05.696Z,38.88
2018-02-22T05:44:39.579Z,39.83
2018-02-22T05:45:13.486Z,37.60
2018-02-22T05:45:47.491Z,45.50
2018-02-22T05:46:21.438Z,41.35
2018-02-22T05:46:55.315Z,38.03
2018-02-22T05:47:29.212Z,43.92
2018-02-22T05:48:03.093Z,40.70
2018-02-22T05:48:37.020Z,40.45
2018-02-22T05:49:11.141Z,38.10
2018-02-22T05:49:45.007Z,39.03
2018-02-22T05:50:19.373Z,38.97
2018-02-22T05:50:53.279Z,46.83
2018-02-22T05:51:27.249Z,43.28
2018-02-22T05:52:01.179Z,37.83
2018-02-22T05:52:35.104Z,39.90
2018-02-22T05:53:09.053Z,43.50
2018-02-22T05:53:42.955Z,39.08
2018-02-22T05:54:16.977Z,45.05
2018-02-22T05:54:50.844Z,36.22
2018-02-22T05:55:24.714Z,41.13
2018-02-22T05:55:58.618Z,37.28
2018-02-22T05:56:32.502Z,37.38
2018-02-22T05:57:06.361Z,37.30
2018-02-22T05:57:40.274Z,40.22
2018-02-22T05:58:14.161Z,39.00
2018-02-22T05:58:48.028Z,38.35
2018-02-22T05:59:22.043Z,39.20
2018-02-22T05:59:55.953Z,37.10
2018-02-22T06:00:29.847Z,38.42
2018-02-22T06:01:03.701Z,43.60
2018-02-22T06:01:37.631Z,39.03
2018-02-22T06:02:11.864Z,38.72
2018-02-22T06:02:45.890Z,42.28
2018-02-22T06:03:19.779Z,41.80
2018-02-22T06:03:53.988Z,34.97
2018-02-22T06:04:27.880Z,39.55
2018-02-22T06:05:01.745Z,41.30
2018-02-22T06:05:35.608Z,34.53
2018-02-22T06:06:10.055Z,41.88
2018-02-22T06:06:43.993Z,38.75
2018-02-22T06:07:18.628Z,42.92
2018-02-22T06:07:52.823Z,38.70
2018-02-22T06:08:26.699Z,40.05
2018-02-22T06:09:00.695Z,41.92
2018-02-22T06:09:34.782Z,47.50
2018-02-22T06:10:08.681Z,41.50
2018-02-22T06:10:42.554Z,44.83
2018-02-22T06:11:16.597Z,35.80
2018-02-22T06:11:50.768Z,36.78
2018-02-22T06:12:24.783Z,46.58
2018-02-22T06:12:58.732Z,45.92
2018-02-22T06:13:32.623Z,44.25
2018-02-22T06:14:06.509Z,46.55
2018-02-22T06:14:40.635Z,42.90
2018-02-22T06:15:14.532Z,44.45
2018-02-22T06:15:48.491Z,41.83
2018-02-22T06:16:22.406Z,41.72
2018-02-22T06:16:56.315Z,50.75
2018-02-22T06:17:30.298Z,45.08
2018-02-22T06:18:04.347Z,44.72
2018-02-22T06:18:38.220Z,50.95
2018-02-22T06:19:12.160Z,47.60
2018-02-22T06:19:46.027Z,51.20
2018-02-22T06:20:20.229Z,49.85
2018-02-22T06:20:54.122Z,45.22
2018-02-22T06:21:28.110Z,46.13
2018-02-22T06:22:02.038Z,47.85
2018-02-22T06:22:35.911Z,52.97
2018-02-22T06:23:09.801Z,47.83
2018-02-22T06:23:43.734Z,48.22
2018-02-22T06:24:17.605Z,47.22
2018-02-22T06:24:52.306Z,45.90
2018-02-22T06:25:26.401Z,49.58
2018-02-22T06:26:00.278Z,53.90
2018-02-22T06:26:34.294Z,47.47
2018-02-22T06:27:08.166Z,45.15
2018-02-22T06:27:42.027Z,47.95
2018-02-22T06:28:15.886Z,49.13
2018-02-22T06:28:49.801Z,50.00
2018-02-22T06:29:23.690Z,45.28
2018-02-22T06:29:57.583Z,47.00
2018-02-22T06:30:31.444Z,49.88
2018-02-22T06:31:05.371Z,55.63
2018-02-22T06:31:39.252Z,52.00
2018-02-22T06:32:13.137Z,50.83
2018-02-22T06:32:47.028Z,46.85
2018-02-22T06:33:20.897Z,51.65
2018-02-22T06:33:54.891Z,46.45
2018-02-22T06:34:28.842Z,45.03
2018-02-22T06:35:02.838Z,43.65
2018-02-22T06:35:36.721Z,47.90
2018-02-22T06:36:10.772Z,42.45
2018-02-22T06:36:44.665Z,54.85
2018-02-22T06:37:18.602Z,49.53
2018-02-22T06:37:52.614Z,50.58
2018-02-22T06:38:26.738Z,43.83
2018-02-22T06:39:00.617Z,47.40
2018-02-22T06:39:34.515Z,42.50
2018-02-22T06:40:08.515Z,47.45
2018-02-22T06:40:42.514Z,50.60
2018-02-22T06:41:16.469Z,41.67
2018-02-22T06:41:50.422Z,42.78
2018-02-22T06:42:24.386Z,50.40
2018-02-22T06:42:58.384Z,41.67
2018-02-22T06:43:32.266Z,46.40
2018-02-22T06:44:06.138Z,50.22
2018-02-22T06:44:40.072Z,43.10
2018-02-22T06:45:13.982Z,44.88
2018-02-22T06:45:47.914Z,45.63
2018-02-22T06:46:21.965Z,45.17
2018-02-22T06:46:56.074Z,41.47
2018-02-22T06:47:29.985Z,44.38
2018-02-22T06:48:03.859Z,43.25
2018-02-22T06:48:37.777Z,40.40
2018-02-22T06:49:11.740Z,45.15
2018-02-22T06:49:45.603Z,41.63
2018-02-22T06:50:19.486Z,46.45
2018-02-22T06:50:53.382Z,46.13
2018-02-22T06:51:27.308Z,48.33
2018-02-22T06:52:01.213Z,49.08
2018-02-22T06:52:35.166Z,48.15
2018-02-22T06:53:09.072Z,43.63
2018-02-22T06:53:43.114Z,45.33
2018-02-22T06:54:17.118Z,46.80
2018-02-22T06:54:50.992Z,48.42
2018-02-22T06:55:24.897Z,49.28
2018-02-22T06:55:58.753Z,46.88
2018-02-22T06:56:32.696Z,46.47
2018-02-22T06:57:06.572Z,46.83
2018-02-22T06:57:40.545Z,43.05
2018-02-22T06:58:14.557Z,51.53
2018-02-22T06:58:48.407Z,41.83
2018-02-22T06:59:22.456Z,44.65
2018-02-22T06:59:56.335Z,41.40
2018-02-22T07:00:30.670Z,43.13
2018-02-22T07:01:04.879Z,47.30
2018-02-22T07:01:38.733Z,44.72
2018-02-22T07:02:13.409Z,47.05
2018-02-22T07:02:47.418Z,47.35
2018-02-22T07:03:21.542Z,49.25
2018-02-22T07:03:55.496Z,43.83
2018-02-22T07:04:29.432Z,42.50
2018-02-22T07:05:03.932Z,50.03
2018-02-22T07:05:37.956Z,47.92
2018-02-22T07:06:11.937Z,43.28
2018-02-22T07:06:45.820Z,48.67
2018-02-22T07:07:19.796Z,52.55
2018-02-22T07:07:53.656Z,44.47
2018-02-22T07:08:27.534Z,47.67
2018-02-22T07:09:01.448Z,46.00
2018-02-22T07:09:35.332Z,49.35
2018-02-22T07:10:09.211Z,47.45
2018-02-22T07:10:43.278Z,45.17
2018-02-22T07:11:17.185Z,52.10
2018-02-22T07:11:51.245Z,47.10
2018-02-22T07:12:25.160Z,48.75
2018-02-22T07:12:59.140Z,49.08
2018-02-22T07:13:33.160Z,55.05
2018-02-22T07:14:07.032Z,54.00
2018-02-22T07:14:41.137Z,49.22
2018-02-22T07:15:15.091Z,50.95
2018-02-22T07:15:49.135Z,48.00
2018-02-22T07:16:23.036Z,47.38
2018-02-22T07:16:56.993Z,46.97
2018-02-22T07:17:30.991Z,47.80
2018-02-22T07:18:05.119Z,50.63